NANYANG COMMERCIAL BANK, LIMITED 南洋商業銀行有限公司
CCASS holding changes from 2026-05-07 to 2026-05-08
"Value change" is the value of the holding change at the closing price at the end of the period. Hit the "stake change" to see history. "*"=stock is suspended or in parallel trading. Last close on this counter is used.
Some data are hidden to fit your display. Rotate?
| Row | Last code |
Name | Holding | Change | Stake % |
Stake Δ % |
Value change |
Last holding |
|
|---|---|---|---|---|---|---|---|---|---|
| 1 | 0700 | TENCENT HOLDINGS LIMITED:O | 7,633,702 | 338,500 | 0.08 | 0.00 | 159,568,900 | 2026-05-08 | |
| 2 | 6869 | Yangtze Optical Fibre and Cable Joint Stock Limited Company:H | 160,500 | 24,000 | 0.04 | 0.01 | 5,904,000 | 2026-05-08 | |
| 3 | 3690 | Meituan:B | 6,104,745 | 65,140 | 0.11 | 0.00 | 5,475,017 | 2026-05-08 | |
| 4 | 1211 | BYD COMPANY LIMITED:H | 3,125,125 | 33,200 | 0.08 | 0.00 | 3,311,700 | 2026-05-08 | |
| 5 | 3750 | Contemporary Amperex Technology Co., Limited:H | 107,000 | 3,500 | 0.05 | 0.00 | 2,278,500 | 2026-05-08 | |
| 6 | 1171 | Yankuang Energy Group Company Limited:H | 5,363,111 | 130,000 | 0.13 | 0.00 | 1,934,400 | 2026-05-08 | |
| 7 | 1879 | Shanghai Xizhi Technology Co., Ltd.:H | 4,290 | 2,055 | 0.01 | 0.00 | 1,769,355 | 2026-05-08 | |
| 8 | 2888 | STANDARD CHARTERED PLC:O | 544,089 | 8,650 | 0.02 | 0.00 | 1,721,350 | 2026-05-08 | |
| 9 | 2208 | GOLDWIND SCIENCE&TECHNOLOGY CO., LTD.:H | 882,085 | 78,000 | 0.11 | 0.01 | 1,353,300 | 2026-05-08 | |
| 10 | 7522 | ChinaAMC NASDAQ-100 Index Daily (-2x) Inverse Product:Unit | 1,087,200 | 300,000 | 2.32 | 0.64 | 1,165,200 | 2026-05-08 | |
| 11 | 1772 | GANFENG LITHIUM GROUP CO., LTD.:H | 764,360 | 12,200 | 0.16 | 0.00 | 1,015,040 | 2026-05-08 | |
| 12 | 3466 | Hang Seng High Dividend 30 Index ETF:Unit | 5,238,800 | 44,400 | 1.12 | 0.01 | 986,568 | 2026-05-08 | |
| 13 | 68 | Manycore Tech Inc.:O | 660,500 | 38,500 | 0.04 | 0.00 | 958,650 | 2026-05-08 | |
| 14 | 2476 | Victory Giant Technology (HuiZhou) Co., Ltd.:H | 61,700 | 2,600 | 0.06 | 0.00 | 898,040 | 2026-05-08 | |
| 15 | 9866 | NIO Inc.:A | 354,860 | 17,680 | 0.02 | 0.00 | 826,363 | 2026-05-08 | |
| 16 | 9660 | Horizon Robotics:B | 10,481,400 | 115,800 | 0.08 | 0.00 | 812,916 | 2026-05-08 | |
| 17 | 0669 | TECHTRONIC INDUSTRIES COMPANY LIMITED:O | 166,332 | 6,500 | 0.01 | 0.00 | 800,800 | 2026-05-08 | |
| 18 | 2616 | CStone Pharmaceuticals:O | 826,000 | 90,000 | 0.05 | 0.01 | 759,600 | 2026-05-08 | |
| 19 | 6166 | CIG SHANGHAI CO., LTD.:H | 97,050 | 5,050 | 0.13 | 0.01 | 725,685 | 2026-05-08 | |
| 20 | 7500 | CSOP Hang Seng Index Daily (-2x) Inverse Product:Unit | 13,021,800 | 440,000 | 0.67 | 0.02 | 724,240 | 2026-05-08 | |
| 21 | 1958 | BAIC Motor Corporation Limited:H | 3,782,000 | 510,000 | 0.15 | 0.02 | 698,700 | 2026-05-08 | |
| 22 | 0941 | China Mobile Limited (HK):O | 17,379,595 | 8,000 | 0.08 | 0.00 | 683,600 | 2026-05-08 | |
| 23 | 1093 | CSPC PHARMACEUTICAL GROUP LIMITED:O | 4,599,586 | 72,000 | 0.04 | 0.00 | 590,400 | 2026-05-08 | |
| 24 | 1797 | East Buy Holding Limited:O | 717,000 | 20,000 | 0.07 | 0.00 | 546,400 | 2026-05-08 | |
| 25 | 2338 | WEICHAI POWER CO., LTD.:H | 661,174 | 13,000 | 0.03 | 0.00 | 538,200 | 2026-05-08 | |
| 26 | 0291 | China Resources Beer (Holdings) Company Limited:O | 1,373,148 | 20,000 | 0.04 | 0.00 | 531,200 | 2026-05-08 | |
| 27 | 1038 | CK Infrastructure Holdings Limited:O | 1,868,314 | 8,000 | 0.07 | 0.00 | 526,000 | 2026-05-08 | |
| 28 | 1943 | King's Stone Holdings Group Limited:O | 1,490,000 | 760,000 | 0.14 | 0.07 | 509,200 | 2026-05-08 | |
| 29 | 9618 | JD.com, Inc.:A | 1,229,052 | 4,238 | 0.04 | 0.00 | 502,203 | 2026-05-08 | |
| 30 | 1570 | WEIYE HOLDINGS LIMITED:O | 35,000 | 35,000 | 0.02 | 0.02 | 498,750 | 2026-05-08 | |
| 31 | 1378 | China Hongqiao Group Limited:O | 2,247,000 | 14,500 | 0.02 | 0.00 | 493,000 | 2026-05-08 | |
| 32 | 0568 | SHANDONG MOLONG PETROLEUM MACHINERY COMPANY LIMITED:H | 513,200 | 64,800 | 0.20 | 0.03 | 483,408 | 2026-05-08 | |
| 33 | 0451 | GCL New Energy Holdings Limited:O | 5,233,960 | 546,700 | 0.31 | 0.03 | 475,629 | 2026-05-08 | |
| 34 | 1299 | AIA Group Limited:O | 3,359,086 | 5,469 | 0.03 | 0.00 | 473,615 | 2026-05-08 | |
| 35 | 2427 | Guanze Medical Information Industry (Holding) Co., Ltd.:O | 950,000 | 65,000 | 0.10 | 0.01 | 458,250 | 2026-05-08 | |
| 36 | 9868 | XPeng Inc.:A | 520,196 | 7,100 | 0.03 | 0.00 | 435,230 | 2026-05-08 | |
| 37 | 0710 | BOE Varitronix Limited:O | 1,319,003 | 100,000 | 0.17 | 0.01 | 434,000 | 2026-05-08 | |
| 38 | 0136 | China Ruyi Holdings Limited:O | 15,031,417 | 300,000 | 0.09 | 0.00 | 429,000 | 2026-05-08 | |
| 39 | 9926 | Akeso, Inc.:O | 193,000 | 3,000 | 0.02 | 0.00 | 402,000 | 2026-05-08 | |
| 40 | 2689 | Nine Dragons Paper (Holdings) Limited:O | 3,478,319 | 60,000 | 0.07 | 0.00 | 389,400 | 2026-05-08 | |
| 41 | 1609 | Star Sports Medicine Co., Ltd.:H | 18,450 | 1,900 | 0.03 | 0.00 | 381,900 | 2026-05-08 | |
| 42 | 0580 | Sun.King Technology Group Limited:O | 6,352,000 | 186,000 | 0.40 | 0.01 | 381,300 | 2026-05-08 | |
| 43 | 2313 | Shenzhou International Group Holdings Limited:O | 102,928 | 8,000 | 0.01 | 0.00 | 372,160 | 2026-05-08 | |
| 44 | 7552 | CSOP Hang Seng TECH Index Daily (-2x) Inverse Product:Unit | 17,329,700 | 240,000 | 1.03 | 0.01 | 369,600 | 2026-05-08 | |
| 45 | 2020 | ANTA Sports Products Limited:O | 486,706 | 4,600 | 0.02 | 0.00 | 359,950 | 2026-05-08 | |
| 46 | 2493 | Mabwell (Shanghai) Bioscience Co., Ltd.:H | 89,600 | 13,400 | 0.19 | 0.03 | 356,172 | 2026-05-08 | |
| 47 | 1919 | COSCO SHIPPING Holdings Co., Ltd.:H | 14,697,969 | 24,000 | 0.53 | 0.00 | 353,280 | 2026-05-08 | |
| 48 | 0031 | CHINA AEROSPACE INTERNATIONAL HOLDINGS LIMITED:O | 18,222,593 | 600,000 | 0.59 | 0.02 | 348,000 | 2026-05-08 | |
| 49 | 2656 | 160 Health International Limited:O | 36,000 | 15,000 | 0.01 | 0.00 | 347,100 | 2026-05-08 | |
| 50 | 2328 | PICC PROPERTY AND CASUALTY COMPANY LIMITED:H | 8,265,996 | 22,000 | 0.12 | 0.00 | 327,360 | 2026-05-08 | |
| 51 | 0062 | Transport International Holdings Limited:O | 743,576 | 30,000 | 0.14 | 0.01 | 311,400 | 2026-05-08 | |
| 52 | 1635 | Shanghai Dazhong Public Utilities (Group) Co., Ltd.:H | 715,000 | 100,000 | 0.13 | 0.02 | 309,000 | 2026-05-08 | |
| 53 | 1810 | Xiaomi Corporation:B | 22,811,409 | 9,675 | 0.11 | 0.00 | 306,504 | 2026-05-08 | |
| 54 | 1126 | DREAM INTERNATIONAL LIMITED (HK):O | 247,500 | 39,000 | 0.04 | 0.01 | 296,010 | 2026-05-08 | |
| 55 | 1883 | CITIC Telecom International Holdings Limited:O | 4,688,972 | 100,000 | 0.13 | 0.00 | 282,000 | 2026-05-08 | |
| 56 | 1801 | Innovent Biologics, Inc.:O | 120,500 | 3,000 | 0.01 | 0.00 | 270,000 | 2026-05-08 | |
| 57 | 1530 | 3SBio Inc.:O | 1,904,500 | 12,000 | 0.08 | 0.00 | 267,840 | 2026-05-08 | |
| 58 | 2269 | WuXi Biologics (Cayman) Inc.:O | 1,878,289 | 8,000 | 0.05 | 0.00 | 261,280 | 2026-05-08 | |
| 59 | 1988 | China Minsheng Banking Corp., Ltd.:H | 16,724,534 | 68,000 | 0.20 | 0.00 | 242,760 | 2026-05-08 | |
| 60 | 3800 | GCL Technology Holdings Limited (KY):O | 70,767,200 | 265,000 | 0.21 | 0.00 | 241,150 | 2026-05-08 | |
| 61 | 1208 | MMG Limited (HK):O | 3,576,476 | 24,000 | 0.03 | 0.00 | 240,000 | 2026-05-08 | |
| 62 | 6655 | HUAXIN BUILDING MATERIALS GROUP CO., LTD.:H | 58,000 | 15,000 | 0.01 | 0.00 | 239,700 | 2026-05-08 | |
| 63 | 9992 | POP MART INTERNATIONAL GROUP LIMITED:O | 397,600 | 1,400 | 0.03 | 0.00 | 235,340 | 2026-05-08 | |
| 64 | 2432 | SHENZHEN DOBOT CORP LTD:H | 261,200 | 6,800 | 0.07 | 0.00 | 235,144 | 2026-05-08 | |
| 65 | 0241 | Alibaba Health Information Technology Limited:O | 14,226,706 | 50,000 | 0.09 | 0.00 | 230,000 | 2026-05-08 | |
| 66 | 0576 | ZHEJIANG EXPRESSWAY CO., LTD.:H | 2,737,246 | 32,000 | 0.14 | 0.00 | 221,120 | 2026-05-08 | |
| 67 | 2507 | Cirrus Aircraft Limited:O | 45,700 | 5,800 | 0.01 | 0.00 | 220,168 | 2026-05-08 | |
| 68 | 0819 | Tianneng Power International Limited:O | 1,418,000 | 34,000 | 0.13 | 0.00 | 212,840 | 2026-05-08 | |
| 69 | 7489 | VOYAH Automotive Technology Co., Ltd.:H | 670,244 | 32,579 | 0.08 | 0.00 | 198,080 | 2026-05-08 | |
| 70 | 1989 | Delton Technology (Guangzhou) Inc.:H | 9,000 | 1,000 | 0.02 | 0.00 | 196,000 | 2026-05-08 | |
| 71 | 9633 | Nongfu Spring Co., Ltd:H | 273,400 | 4,200 | 0.01 | 0.00 | 193,872 | 2026-05-08 | |
| 72 | 6651 | Beijing 51WORLD Digital Twin Technology Co., Ltd.:H | 20,600 | 3,600 | 0.01 | 0.00 | 191,880 | 2026-05-08 | |
| 73 | 9889 | Dongguan Rural Commercial Bank Co., Ltd.:H | 1,228,000 | 53,000 | 0.11 | 0.00 | 190,270 | 2026-05-08 | |
| 74 | 1672 | Ascletis Pharma Inc.:O | 329,000 | 11,000 | 0.03 | 0.00 | 186,340 | 2026-05-08 | |
| 75 | 1880 | China Tourism Group Duty Free Corporation Limited:H | 237,300 | 3,000 | 0.19 | 0.00 | 175,350 | 2026-05-08 | |
| 76 | 1199 | COSCO SHIPPING Ports Limited:O | 2,822,997 | 30,000 | 0.07 | 0.00 | 163,800 | 2026-05-08 | |
| 77 | 6656 | SIGENERGY TECHNOLOGY CO., LTD.:H | 11,400 | 300 | 0.01 | 0.00 | 159,450 | 2026-05-08 | |
| 78 | 0175 | GEELY AUTOMOBILE HOLDINGS LIMITED:O | 10,497,529 | 7,000 | 0.10 | 0.00 | 159,180 | 2026-05-08 | |
| 79 | 2577 | InnoScience (Suzhou) Technology Holding Co., Ltd.:H | 255,500 | 2,400 | 0.05 | 0.00 | 157,200 | 2026-05-08 | |
| 80 | 0813 | Shimao Group Holdings Limited:O | 88,460,042 | 940,000 | 0.91 | 0.01 | 153,220 | 2026-05-08 | |
| 81 | 2635 | Nuobikan AI Technology (Chengdu) Co., Ltd.:H | 27,600 | 7,600 | 0.01 | 0.00 | 149,720 | 2026-05-08 | |
| 82 | 0152 | SHENZHEN INTERNATIONAL HOLDINGS LIMITED:O | 6,682,490 | 20,000 | 0.27 | 0.00 | 149,400 | 2026-05-08 | |
| 83 | 3320 | CHINA RESOURCES PHARMACEUTICAL GROUP LIMITED:O | 1,848,498 | 29,000 | 0.03 | 0.00 | 149,350 | 2026-05-08 | |
| 84 | 9678 | Unisound AI Technology Co., Ltd.:H | 19,400 | 500 | 0.04 | 0.00 | 148,400 | 2026-05-08 | |
| 85 | 0467 | United Energy Group Limited:O | 2,228,000 | 304,000 | 0.01 | 0.00 | 147,440 | 2026-05-08 | |
| 86 | 0013 | HUTCHMED (China) Limited:O | 589,000 | 7,000 | 0.07 | 0.00 | 147,000 | 2026-05-08 | |
| 87 | 1478 | Q Technology (Group) Company Limited:O | 2,597,000 | 16,000 | 0.22 | 0.00 | 145,120 | 2026-05-08 | |
| 88 | 1187 | Cofoe Medical Technology Co., Ltd.:H | 5,100 | 3,900 | 0.02 | 0.01 | 141,882 | 2026-05-08 | |
| 89 | 3968 | CHINA MERCHANTS BANK CO., LTD.:H | 4,123,733 | 3,000 | 0.09 | 0.00 | 141,720 | 2026-05-08 | |
| 90 | 2268 | WuXi XDC Cayman Inc.:O | 51,059 | 2,500 | 0.00 | 0.00 | 140,000 | 2026-05-08 | |
| 91 | 2509 | Qyuns Therapeutics Co., Ltd.:H | 176,600 | 8,200 | 0.08 | 0.00 | 136,940 | 2026-05-08 | |
| 92 | 3983 | China BlueChemical Ltd.:H | 3,238,000 | 50,000 | 0.18 | 0.00 | 134,000 | 2026-05-08 | |
| 93 | 6810 | Shanghai Sunmi Technology Co., Ltd:H | 28,300 | 1,700 | 0.01 | 0.00 | 127,500 | 2026-05-08 | |
| 94 | 3416 | Global X HSCEI Components Covered Call Active ETF:Unit | 16,239,500 | 13,000 | 0.67 | 0.00 | 124,800 | 2026-05-08 | |
| 95 | 6060 | ZhongAn Online P & C Insurance Co., Ltd.:H | 2,722,458 | 10,000 | 0.17 | 0.00 | 122,200 | 2026-05-08 | |
| 96 | 1788 | Guotai Junan International Holdings Limited:O | 13,161,017 | 50,000 | 0.14 | 0.00 | 120,000 | 2026-05-08 | |
| 97 | 2598 | Lianlian DigiTech Co., Ltd.:H | 1,252,000 | 20,000 | 0.29 | 0.00 | 119,400 | 2026-05-08 | |
| 98 | 2883 | China Oilfield Services Limited:H | 1,131,827 | 14,000 | 0.06 | 0.00 | 119,000 | 2026-05-08 | |
| 99 | 2609 | Bayzed Health Group Inc:O | 678,000 | 22,200 | 0.05 | 0.00 | 117,882 | 2026-05-08 | |
| 100 | 2018 | AAC TECHNOLOGIES HOLDINGS INC.:O | 1,711,422 | 3,000 | 0.15 | 0.00 | 117,060 | 2026-05-08 | |
| 101 | 2618 | JD Logistics, Inc.:O | 2,028,600 | 8,000 | 0.03 | 0.00 | 116,720 | 2026-05-08 | |
| 102 | 1929 | Chow Tai Fook Jewellery Group Limited:O | 989,769 | 10,000 | 0.01 | 0.00 | 115,400 | 2026-05-08 | |
| 103 | 2802 | CSOP HSCEI Covered Call Active ETF:Unit | 5,842,800 | 14,000 | 0.62 | 0.00 | 114,100 | 2026-05-08 | |
| 104 | 2473 | XXF Group Holdings Limited:O | 2,225,000 | 125,000 | 0.13 | 0.01 | 107,500 | 2026-05-08 | |
| 105 | 0753 | Air China Limited:H | 3,619,950 | 20,000 | 0.07 | 0.00 | 106,400 | 2026-05-08 | |
| 106 | 0168 | TSINGTAO BREWERY COMPANY LIMITED:H | 328,348 | 2,000 | 0.05 | 0.00 | 106,100 | 2026-05-08 | |
| 107 | 3337 | Anton Oilfield Services Group:O | 6,080,000 | 100,000 | 0.20 | 0.00 | 106,000 | 2026-05-08 | |
| 108 | 2142 | HBM Holdings Limited (KY):O | 618,000 | 8,000 | 0.07 | 0.00 | 105,600 | 2026-05-08 | |
| 109 | 3393 | Wasion Holdings Limited:O | 248,000 | 4,000 | 0.02 | 0.00 | 104,800 | 2026-05-08 | |
| 110 | 2525 | Hesai Group:B | 44,700 | 600 | 0.03 | 0.00 | 104,040 | 2026-05-08 | |
| 111 | 0951 | CHAOWEI POWER HOLDINGS LIMITED:O | 1,209,000 | 50,000 | 0.11 | 0.00 | 104,000 | 2026-05-08 | |
| 112 | 9880 | UBTECH ROBOTICS CORP LTD:H | 327,650 | 900 | 0.08 | 0.00 | 102,060 | 2026-05-08 | |
| 113 | 0390 | CHINA RAILWAY GROUP LIMITED:H | 20,184,909 | 26,000 | 0.48 | 0.00 | 100,880 | 2026-05-08 | |
| 114 | 9981 | Shenzhen Woer Heat-Shrinkable Material Co., Ltd. (CN):H | 205,600 | 6,000 | 0.15 | 0.00 | 99,060 | 2026-05-08 | |
| 115 | 7366 | CSOP Tesla Daily (-2x) Inverse Product:Unit | 23,110 | 10,000 | 0.50 | 0.22 | 98,000 | 2026-05-08 | |
| 116 | 1045 | APT SATELLITE HOLDINGS LIMITED:O | 2,761,000 | 24,000 | 0.30 | 0.00 | 96,000 | 2026-05-08 | |
| 117 | 0008 | PCCW LIMITED:O | 83,292,809 | 15,000 | 1.08 | 0.00 | 94,050 | 2026-05-08 | |
| 118 | 0780 | Tongcheng Travel Holdings Limited (KY):O | 340,000 | 5,200 | 0.01 | 0.00 | 93,080 | 2026-05-08 | |
| 119 | 6862 | HAIDILAO INTERNATIONAL HOLDING LTD.:O | 988,000 | 6,000 | 0.02 | 0.00 | 88,380 | 2026-05-08 | |
| 120 | 0288 | WH Group Limited (KY):O | 1,140,906 | 9,000 | 0.01 | 0.00 | 88,200 | 2026-05-08 | |
| 121 | 2331 | LI NING COMPANY LIMITED:O | 1,068,919 | 4,500 | 0.04 | 0.00 | 87,480 | 2026-05-08 | |
| 122 | 8436 | Takbo Group Holdings Limited:O | 2,840,000 | 200,000 | 0.71 | 0.05 | 85,000 | 2026-05-08 | |
| 123 | 2631 | SICC Co., Ltd:H | 22,400 | 1,200 | 0.04 | 0.00 | 84,600 | 2026-05-08 | |
| 124 | 2228 | XtalPi Holdings Limited:O | 7,136,000 | 9,000 | 0.17 | 0.00 | 82,260 | 2026-05-08 | |
| 125 | 1918 | Sunac China Holdings Limited:O | 35,691,540 | 70,000 | 0.21 | 0.00 | 81,200 | 2026-05-08 | |
| 126 | 1813 | KWG Group Holdings Limited:O | 42,845,544 | 500,000 | 1.25 | 0.01 | 79,000 | 2026-05-08 | |
| 127 | 2505 | EDA Group Holdings Limited:O | 358,200 | 81,000 | 0.08 | 0.02 | 78,570 | 2026-05-08 | |
| 128 | 1716 | Most Kwai Chung Limited:O | 696,000 | 10,000 | 0.26 | 0.00 | 72,000 | 2026-05-08 | |
| 129 | 0881 | Zhongsheng Group Holdings Limited:O | 562,000 | 10,000 | 0.02 | 0.00 | 72,000 | 2026-05-08 | |
| 130 | 6830 | Huazhong In-Vehicle Holdings Company Limited:O | 1,448,000 | 308,000 | 0.08 | 0.02 | 71,764 | 2026-05-08 | |
| 131 | 0046 | COMPUTER AND TECHNOLOGIES HOLDINGS LIMITED:O | 18,819,000 | 60,000 | 7.70 | 0.02 | 71,400 | 2026-05-08 | |
| 132 | 2276 | Shanghai Conant Optical Co., Ltd.:H | 7,600 | 1,500 | 0.00 | 0.00 | 69,480 | 2026-05-08 | |
| 133 | 1816 | CGN Power Co., Ltd.:H | 21,150,007 | 20,000 | 0.19 | 0.00 | 69,200 | 2026-05-08 | |
| 134 | 1308 | SITC International Holdings Company Limited:O | 234,000 | 2,000 | 0.01 | 0.00 | 68,520 | 2026-05-08 | |
| 135 | 2105 | Laekna, Inc.:O | 473,500 | 5,000 | 0.11 | 0.00 | 67,500 | 2026-05-08 | |
| 136 | 1766 | CRRC Corporation Limited:H | 18,902,027 | 13,000 | 0.43 | 0.00 | 67,340 | 2026-05-08 | |
| 137 | 9898 | Weibo Corporation:A | 90,540 | 1,000 | 0.06 | 0.00 | 67,250 | 2026-05-08 | |
| 138 | 3816 | KFM Kingdom Holdings Limited:O | 2,452,000 | 40,000 | 0.41 | 0.01 | 66,400 | 2026-05-08 | |
| 139 | 2225 | Jinhai Medical Technology Limited:O | 1,300,000 | 15,000 | 0.02 | 0.00 | 66,150 | 2026-05-08 | |
| 140 | 2245 | Lygend Resources & Technology Co., Ltd.:H | 76,800 | 5,000 | 0.01 | 0.00 | 65,750 | 2026-05-08 | |
| 141 | 0517 | COSCO SHIPPING International (Hong Kong) Co., Ltd.:O | 5,654,895 | 10,000 | 0.39 | 0.00 | 65,300 | 2026-05-08 | |
| 142 | 2050 | ZHEJIANG SANHUA INTELLIGENT CONTROLS CO., LTD.:H | 1,081,100 | 1,800 | 0.23 | 0.00 | 63,972 | 2026-05-08 | |
| 143 | 0412 | SHANDONG HI-SPEED HOLDINGS GROUP LIMITED:O | 8,884,896 | 50,000 | 0.15 | 0.00 | 63,000 | 2026-05-08 | |
| 144 | 0776 | Imperium Technology Group Limited (KY):O | 8,512,500 | 71,500 | 1.90 | 0.02 | 62,920 | 2026-05-08 | |
| 145 | 3383 | Agile Group Holdings Limited (KY):O | 14,517,668 | 250,000 | 0.29 | 0.00 | 61,000 | 2026-05-08 | |
| 146 | 2555 | Sichuan Baicha Baidao Industrial Co., Ltd.:H | 71,000 | 10,000 | 0.00 | 0.00 | 59,900 | 2026-05-08 | |
| 147 | 9885 | YSB Inc.:O | 807,200 | 12,000 | 0.12 | 0.00 | 57,840 | 2026-05-08 | |
| 148 | 2617 | TransThera Sciences (Nanjing), Inc.:H | 41,000 | 1,000 | 0.01 | 0.00 | 55,200 | 2026-05-08 | |
| 149 | 1651 | Precision Tsugami (China) Corporation Limited:O | 140,000 | 1,000 | 0.04 | 0.00 | 54,900 | 2026-05-08 | |
| 150 | 3700 | Inkeverse Group Limited:O | 2,075,000 | 60,000 | 0.11 | 0.00 | 54,600 | 2026-05-08 | |
| 151 | 1186 | China Railway Construction Corporation Limited:H | 15,912,023 | 10,000 | 0.77 | 0.00 | 52,400 | 2026-05-08 | |
| 152 | 2477 | WellCell Holdings Co., Limited:O | 101,600 | 12,000 | 0.00 | 0.00 | 51,360 | 2026-05-08 | |
| 153 | 0323 | MAANSHAN IRON & STEEL COMPANY LIMITED:H | 38,779,040 | 20,000 | 2.24 | 0.00 | 51,200 | 2026-05-08 | |
| 154 | 2166 | Smart-Core Holdings Limited:O | 178,000 | 12,000 | 0.04 | 0.00 | 51,000 | 2026-05-08 | |
| 155 | 3032 | Hang Seng TECH Index ETF:Unit | 5,041,800 | 10,000 | 0.37 | 0.00 | 50,850 | 2026-05-08 | |
| 156 | 1789 | AK Medical Holdings Limited:O | 1,380,000 | 8,000 | 0.12 | 0.00 | 50,640 | 2026-05-08 | |
| 157 | 1300 | Trigiant Group Limited:O | 952,000 | 30,000 | 0.05 | 0.00 | 49,800 | 2026-05-08 | |
| 158 | 2706 | Beijing Haizhi Technology Group Co., Ltd.:H | 49,600 | 800 | 0.01 | 0.00 | 49,680 | 2026-05-08 | |
| 159 | 0460 | Sihuan Pharmaceutical Holdings Group Ltd.:O | 26,249,000 | 40,000 | 0.29 | 0.00 | 48,800 | 2026-05-08 | |
| 160 | 0133 | CHINA MERCHANTS CHINA DIRECT INVESTMENTS LIMITED:O | 1,947,242 | 2,000 | 1.28 | 0.00 | 48,400 | 2026-05-08 | |
| 161 | 0268 | KINGDEE INTERNATIONAL SOFTWARE GROUP COMPANY LIMITED:O | 3,087,282 | 5,000 | 0.09 | 0.00 | 46,700 | 2026-05-08 | |
| 162 | 0590 | LUK FOOK HOLDINGS (INTERNATIONAL) LIMITED:O | 354,000 | 2,000 | 0.06 | 0.00 | 46,600 | 2026-05-08 | |
| 163 | 2517 | Guoquan Food (Shanghai) Co., Ltd.:H | 106,000 | 14,000 | 0.00 | 0.00 | 46,340 | 2026-05-08 | |
| 164 | 1033 | Sinopec Oilfield Service Corporation:H | 16,469,000 | 60,000 | 0.30 | 0.00 | 46,200 | 2026-05-08 | |
| 165 | 2298 | Cosmo Lady (China) Holdings Company Limited:O | 4,582,000 | 100,000 | 0.20 | 0.00 | 46,000 | 2026-05-08 | |
| 166 | 1800 | China Communications Construction Company Limited:H | 42,267,216 | 10,000 | 0.96 | 0.00 | 45,300 | 2026-05-08 | |
| 167 | 3998 | Bosideng International Holdings Limited:O | 1,410,000 | 10,000 | 0.01 | 0.00 | 43,900 | 2026-05-08 | |
| 168 | 0826 | Tiangong International Company Limited:O | 1,342,000 | 12,000 | 0.05 | 0.00 | 42,840 | 2026-05-08 | |
| 169 | 664 | Hangzhou Tongshifu Cultural & Creative (Group) Co Ltd - H sh:H | 9,900 | 2,000 | 0.02 | 0.00 | 42,720 | 2026-05-08 | |
| 170 | 9961 | TRIP.COM GROUP LIMITED:O | 79,850 | 100 | 0.01 | 0.00 | 41,700 | 2026-05-08 | |
| 171 | 2511 | HighTide Therapeutics, Inc.:O | 218,000 | 10,000 | 0.04 | 0.00 | 41,400 | 2026-05-08 | |
| 172 | 1164 | CGN Mining Company Limited:O | 1,521,950 | 10,000 | 0.02 | 0.00 | 40,400 | 2026-05-08 | |
| 173 | 9911 | Newborn Town Inc.:O | 936,000 | 4,000 | 0.07 | 0.00 | 39,120 | 2026-05-08 | |
| 174 | 6908 | HG Semiconductor Limited (KY):O | 894,000 | 80,000 | 0.08 | 0.01 | 38,800 | 2026-05-08 | |
| 175 | 6823 | HKT Limited (KY):O | 10,323,166 | 3,000 | 0.14 | 0.00 | 37,830 | 2026-05-08 | |
| 176 | 9923 | YEAHKA LIMITED:O | 1,683,600 | 6,000 | 0.36 | 0.00 | 37,380 | 2026-05-08 | |
| 177 | 3833 | Xinjiang Xinxin Mining Industry Co., Ltd.:H | 4,386,000 | 14,000 | 0.46 | 0.00 | 36,960 | 2026-05-08 | |
| 178 | 2840 | SPDR Gold Trust:Unit | 16,410 | 10 | 0.00 | 0.00 | 33,980 | 2026-05-08 | |
| 179 | 7515 | CSOP Nikkei 225 Daily (-2x) Inverse Product:Unit | 129,730 | 2,000 | 1.03 | 0.02 | 33,760 | 2026-05-08 | |
| 180 | 3277 | Gpixel Changchun Microelectronics Inc.:H | 31,800 | 400 | 0.01 | 0.00 | 32,400 | 2026-05-08 | |
| 181 | 6622 | Zhaoke Ophthalmology Limited:O | 582,708 | 11,000 | 0.11 | 0.00 | 32,230 | 2026-05-08 | |
| 182 | 1873 | VIVA BIOTECH HOLDINGS:O | 3,167,500 | 20,000 | 0.15 | 0.00 | 31,800 | 2026-05-08 | |
| 183 | 2407 | Gaush Meditech Ltd:O | 21,000 | 6,000 | 0.01 | 0.00 | 30,660 | 2026-05-08 | |
| 184 | 2503 | Zhongshen Jianye Holding Limited:O | 1,252,000 | 100,000 | 0.11 | 0.01 | 30,500 | 2026-05-08 | |
| 185 | 6690 | Haier Smart Home Co., Ltd.:H | 631,301 | 1,400 | 0.02 | 0.00 | 30,296 | 2026-05-08 | |
| 186 | 2381 | SMC Electric Limited:O | 2,320,000 | 170,000 | 0.12 | 0.01 | 30,090 | 2026-05-08 | |
| 187 | 0866 | China Qinfa Group Limited:O | 2,508,338 | 10,000 | 0.10 | 0.00 | 29,300 | 2026-05-08 | |
| 188 | 9939 | Kintor Pharmaceutical Limited:O | 4,368,000 | 10,000 | 0.88 | 0.00 | 29,200 | 2026-05-08 | |
| 189 | 0480 | HKR INTERNATIONAL LIMITED:O | 756,194 | 24,000 | 0.05 | 0.00 | 29,040 | 2026-05-08 | |
| 190 | 1079 | PINE TECHNOLOGY HOLDINGS LIMITED:O | 3,490,000 | 100,000 | 0.24 | 0.01 | 28,000 | 2026-05-08 | |
| 191 | 0511 | TELEVISION BROADCASTS LIMITED:O | 1,647,900 | 10,000 | 0.35 | 0.00 | 27,900 | 2026-05-08 | |
| 192 | 2359 | WuXi AppTec Co., Ltd.:H | 94,846 | 200 | 0.02 | 0.00 | 27,020 | 2026-05-08 | |
| 193 | 2302 | CNNC International Limited:O | 208,000 | 5,000 | 0.04 | 0.00 | 26,600 | 2026-05-08 | |
| 194 | 1799 | Xinte Energy Co., Ltd.:H | 612,000 | 4,000 | 0.16 | 0.00 | 25,440 | 2026-05-08 | |
| 195 | 3888 | Kingsoft Corporation Limited:O | 2,578,193 | 1,000 | 0.19 | 0.00 | 25,280 | 2026-05-08 | |
| 196 | 3033 | CSOP Hang Seng TECH Index ETF:Unit | 5,358,200 | 5,000 | 0.03 | 0.00 | 24,990 | 2026-05-08 | |
| 197 | 0322 | TINGYI (CAYMAN ISLANDS) HOLDING CORP.:O | 206,402 | 2,000 | 0.00 | 0.00 | 24,920 | 2026-05-08 | |
| 198 | 2460 | China Resources Beverage (Holdings) Company Limited:O | 8,684,800 | 2,800 | 0.36 | 0.00 | 24,780 | 2026-05-08 | |
| 199 | 2562 | Synagistics Limited (KY):A | 1,047,000 | 10,000 | 0.23 | 0.00 | 24,400 | 2026-05-08 | |
| 200 | 2788 | Chuangxin Industries Holdings Limited:O | 127,500 | 1,000 | 0.01 | 0.00 | 23,720 | 2026-05-08 | |
| 201 | 0436 | New Universe Environmental Group Limited:O | 1,599,500 | 380,000 | 0.05 | 0.01 | 23,560 | 2026-05-08 | |
| 202 | 2451 | Luyuan Group Holding (Cayman) Limited:O | 125,000 | 2,000 | 0.03 | 0.00 | 22,780 | 2026-05-08 | |
| 203 | 2638 | HK Electric Investments Limited:O | 44,844,849 | 3,500 | 0.51 | 0.00 | 22,435 | 2026-05-08 | |
| 204 | 2086 | Leadway Technology Investment Group Limited:O | 629,000 | 52,000 | 0.20 | 0.02 | 22,100 | 2026-05-08 | |
| 205 | 3899 | CIMC Enric Holdings Limited:O | 1,986,000 | 2,000 | 0.09 | 0.00 | 21,560 | 2026-05-08 | |
| 206 | 0822 | Ka Shui International Holdings Limited:O | 16,762,000 | 54,000 | 1.88 | 0.01 | 21,330 | 2026-05-08 | |
| 207 | 2126 | JW (Cayman) Therapeutics Co. Ltd:O | 2,041,000 | 8,000 | 0.49 | 0.00 | 21,280 | 2026-05-08 | |
| 208 | 8188 | GME GROUP HOLDINGS LIMITED (KY):O | 620,000 | 16,000 | 0.13 | 0.00 | 20,960 | 2026-05-08 | |
| 209 | 2556 | Marketingforce Management Ltd:O | 126,400 | 500 | 0.05 | 0.00 | 20,630 | 2026-05-08 | |
| 210 | 0623 | SinoMedia Holding Limited:O | 905,000 | 10,000 | 0.19 | 0.00 | 20,400 | 2026-05-08 | |
| 211 | 0880 | SJM Holdings Limited:O | 10,850,993 | 10,000 | 0.15 | 0.00 | 20,100 | 2026-05-08 | |
| 212 | 1401 | Future Machine Limited:O | 359,000 | 40,000 | 0.02 | 0.00 | 19,200 | 2026-05-08 | |
| 213 | 9688 | Zai Lab Limited:O | 182,100 | 1,200 | 0.02 | 0.00 | 18,108 | 2026-05-08 | |
| 214 | 2648 | Anjoy Foods Group Co., Ltd.:H | 1,300 | 200 | 0.00 | 0.00 | 17,400 | 2026-05-08 | |
| 215 | 2510 | T.S. Lines Limited:O | 515,000 | 2,000 | 0.03 | 0.00 | 17,180 | 2026-05-08 | |
| 216 | 2676 | Suzhou Novosense Microelectronics Co., Ltd.:H | 2,100 | 100 | 0.01 | 0.00 | 17,000 | 2026-05-08 | |
| 217 | 1952 | Everest Medicines Limited:O | 128,000 | 500 | 0.04 | 0.00 | 16,410 | 2026-05-08 | |
| 218 | 2342 | COMBA TELECOM SYSTEMS HOLDINGS LIMITED:O | 20,032,687 | 10,000 | 0.64 | 0.00 | 16,100 | 2026-05-08 | |
| 219 | 2661 | QingSong Health Corporation:O | 14,600 | 400 | 0.01 | 0.00 | 16,088 | 2026-05-08 | |
| 220 | 1341 | Hao Tian International Construction Investment Group Limited:O | 17,680,000 | 704,000 | 0.16 | 0.01 | 15,488 | 2026-05-08 | |
| 221 | 1681 | Consun Pharmaceutical Group Limited:O | 193,000 | 1,000 | 0.02 | 0.00 | 15,290 | 2026-05-08 | |
| 222 | 0605 | China Financial Services Holdings Limited:O | 387,500 | 18,000 | 0.19 | 0.01 | 15,120 | 2026-05-08 | |
| 223 | 0556 | Pan Asia Environmental Protection Group Limited:O | 776,000 | 30,000 | 0.08 | 0.00 | 14,700 | 2026-05-08 | |
| 224 | 1725 | China Strategic Technology Group Limited:O | 4,487,000 | 25,000 | 0.55 | 0.00 | 14,250 | 2026-05-08 | |
| 225 | 0564 | ZCZL Industrial Technology Group Company Limited (CN):H | 139,400 | 800 | 0.06 | 0.00 | 13,880 | 2026-05-08 | |
| 226 | 0535 | Gemdale Properties and Investment Corporation Limited:O | 4,963,033 | 114,000 | 0.03 | 0.00 | 13,680 | 2026-05-08 | |
| 227 | 0661 | China Daye Non-Ferrous Metals Mining Limited:O | 84,801,750 | 100,000 | 0.47 | 0.00 | 13,200 | 2026-05-08 | |
| 228 | 1142 | E&P Global Holdings Limited:O | 6,458,235 | 100,000 | 0.05 | 0.00 | 12,900 | 2026-05-08 | |
| 229 | 0867 | China Medical System Holdings Limited:O | 55,000 | 1,000 | 0.00 | 0.00 | 12,310 | 2026-05-08 | |
| 230 | 1021 | Guangdong Huayan Robotics Co., Ltd.:H | 124,600 | 600 | 0.02 | 0.00 | 11,892 | 2026-05-08 | |
| 231 | 0279 | Arta TechFin Corporation Limited:O | 1,119,565 | 24,000 | 0.08 | 0.00 | 11,760 | 2026-05-08 | |
| 232 | 3086 | ChinaAMC NASDAQ 100 ETF:Unit | 40,600 | 200 | 0.20 | 0.00 | 11,692 | 2026-05-08 | |
| 233 | 6885 | Henan Jinma Energy Company Limited:H | 554,000 | 10,000 | 0.10 | 0.00 | 11,000 | 2026-05-08 | |
| 234 | 1177 | SINO BIOPHARMACEUTICAL LIMITED:O | 12,026,801 | 2,000 | 0.06 | 0.00 | 10,860 | 2026-05-08 | |
| 235 | 2150 | Nayuki Holdings Limited:O | 1,594,000 | 14,000 | 0.09 | 0.00 | 10,640 | 2026-05-08 | |
| 236 | 2233 | WEST CHINA CEMENT LIMITED:O | 5,310,000 | 4,000 | 0.10 | 0.00 | 10,320 | 2026-05-08 | |
| 237 | 3486 | E Fund (HK) Solactive Asia Semiconductor Select Index ETF:Unit | 24,600 | 500 | 0.63 | 0.01 | 10,170 | 2026-05-08 | |
| 238 | 0127 | CHINESE ESTATES HOLDINGS LIMITED:O | 1,786,562 | 8,000 | 0.09 | 0.00 | 10,080 | 2026-05-08 | |
| 239 | 2498 | RoboSense Technology Co., Ltd:O | 564,000 | 300 | 0.12 | 0.00 | 10,044 | 2026-05-08 | |
| 240 | 2550 | Easou Technology Holdings Limited:O | 927,000 | 5,000 | 0.21 | 0.00 | 9,800 | 2026-05-08 | |
| 241 | 6128 | Graphex Group Limited:O | 4,324,000 | 200,000 | 0.46 | 0.02 | 9,200 | 2026-05-08 | |
| 242 | 0690 | Uni-Bio Science Group Limited:O | 54,173,501 | 100,000 | 0.91 | 0.00 | 9,200 | 2026-05-08 | |
| 243 | 0911 | Qianhai Health Holdings Limited:O | 605,550 | 10,000 | 0.36 | 0.01 | 9,100 | 2026-05-08 | |
| 244 | 0595 | AV CONCEPT HOLDINGS LIMITED:O | 341,600 | 6,000 | 0.04 | 0.00 | 8,940 | 2026-05-08 | |
| 245 | 0919 | Modern Healthcare Technology Holdings Limited (KY):O | 2,056,000 | 88,000 | 0.23 | 0.01 | 8,008 | 2026-05-08 | |
| 246 | 6609 | Shanghai HeartCare Medical Technology Corporation Limited:H | 1,700 | 150 | 0.01 | 0.00 | 7,935 | 2026-05-08 | |
| 247 | 1939 | SHANGSHAN GOLD INTERNATIONAL HOLDINGS LIMITED:O | 728,000 | 10,000 | 0.14 | 0.00 | 7,900 | 2026-05-08 | |
| 248 | 2878 | Solomon Systech (International) Limited:O | 17,174,000 | 18,000 | 0.69 | 0.00 | 7,740 | 2026-05-08 | |
| 249 | 0953 | Shaw Brothers Holdings Limited:O | 7,280,000 | 40,000 | 0.51 | 0.00 | 7,720 | 2026-05-08 | |
| 250 | 7347 | CSOP Samsung Electronics Daily (-2x) Inverse Product:Unit | 863,800 | 73,000 | 0.34 | 0.03 | 7,665 | 2026-05-08 | |
| 251 | 2601 | China Pacific Insurance (Group) Co., Ltd.:H | 628,177 | 200 | 0.02 | 0.00 | 7,088 | 2026-05-08 | |
| 252 | 1490 | AI X Tech Inc.:O | 700,000 | 24,000 | 0.06 | 0.00 | 6,960 | 2026-05-08 | |
| 253 | 3081 | Value Gold ETF:Unit | 180,600 | 300 | 0.09 | 0.00 | 6,654 | 2026-05-08 | |
| 254 | 3931 | CALB Group Co., Ltd.:H | 139,500 | 200 | 0.02 | 0.00 | 6,616 | 2026-05-08 | |
| 255 | 0557 | China Tian Yuan Healthcare Group Limited:O | 314,000 | 14,000 | 0.08 | 0.00 | 6,020 | 2026-05-08 | |
| 256 | 1114 | BRILLIANCE CHINA AUTOMOTIVE HOLDINGS LIMITED:O | 7,205,717 | 2,000 | 0.14 | 0.00 | 5,980 | 2026-05-08 | |
| 257 | 8238 | Winto Group (Holdings) Limited:O | 1,458,240 | 40,000 | 0.42 | 0.01 | 5,680 | 2026-05-08 | |
| 258 | 1313 | China Resources Building Materials Technology Holdings Limited:O | 14,923,887 | 4,000 | 0.21 | 0.00 | 5,560 | 2026-05-08 | |
| 259 | 1508 | China Reinsurance (Group) Corporation:H | 18,999,000 | 4,000 | 0.28 | 0.00 | 5,160 | 2026-05-08 | |
| 260 | 0243 | QPL INTERNATIONAL HOLDINGS LIMITED:O | 751,378 | 9,000 | 0.22 | 0.00 | 5,130 | 2026-05-08 | |
| 261 | 0643 | CARRY WEALTH HOLDINGS LIMITED:O | 2,040,000 | 20,000 | 0.23 | 0.00 | 4,940 | 2026-05-08 | |
| 262 | 3268 | MeiG Smart Technology Co., Ltd:H | 111,100 | 200 | 0.28 | 0.00 | 4,696 | 2026-05-08 | |
| 263 | 6811 | Tai Hing Group Holdings Limited:O | 1,581,000 | 4,000 | 0.16 | 0.00 | 4,640 | 2026-05-08 | |
| 264 | 0987 | China Renewable Energy Investment Limited:O | 1,899,663 | 20,000 | 0.08 | 0.00 | 4,560 | 2026-05-08 | |
| 265 | 3302 | KINERGY CORPORATION LTD.:O | 90,000 | 10,000 | 0.01 | 0.00 | 4,350 | 2026-05-08 | |
| 266 | 2659 | Shanghai Bao Pharmaceuticals Co., Ltd.:H | 20,500 | 100 | 0.01 | 0.00 | 2,740 | 2026-05-08 | |
| 267 | 1932 | CPM Group Limited (KY):O | 168,000 | 8,000 | 0.02 | 0.00 | 2,520 | 2026-05-08 | |
| 268 | 0022 | MEXAN LIMITED (BM):O | 4,426,348 | 40,000 | 0.23 | 0.00 | 2,400 | 2026-05-08 | |
| 269 | 3195 | Hang Seng S&P 500 Index ETF:Unit | 77,500 | 200 | 0.15 | 0.00 | 2,328 | 2026-05-08 | |
| 270 | 1942 | MOG Digitech Holdings Limited:O | 9,302,000 | 14,000 | 0.68 | 0.00 | 2,268 | 2026-05-08 | |
| 271 | 2806 | Global X China Consumer Brand ETF:Unit | 14,350 | 50 | 0.26 | 0.00 | 2,157 | 2026-05-08 | |
| 272 | 0471 | Silkwave Inc:O | 5,776,676 | 12,000 | 1.20 | 0.00 | 2,124 | 2026-05-08 | |
| 273 | 8490 | Niche-Tech Semiconductor Materials Limited (KY):O | 200,000 | 10,000 | 0.03 | 0.00 | 1,490 | 2026-05-08 | |
| 274 | 0645 | Ares Asia Limited:O | 5,168,016 | 8,000 | 1.01 | 0.00 | 1,360 | 2026-05-08 | |
| 275 | 3153 | CSOP Nikkei 225 Index ETF:Unit | 10 | 10 | 0.00 | 0.00 | 1,287 | 2026-05-08 | |
| 276 | 8226 | KOALA Financial Group Limited:O | 1,309,200 | -10,000 | 0.31 | -0.00 | -840 | 2026-05-08 | |
| 277 | 1066 | Shandong Weigao Group Medical Polymer Company Limited:H | 954,579 | -400 | 0.02 | -0.00 | -1,404 | 2026-05-08 | |
| 278 | 0118 | COSMOS MACHINERY ENTERPRISES LIMITED:O | 923,800 | -4,000 | 0.11 | -0.00 | -1,680 | 2026-05-08 | |
| 279 | 1102 | Enviro Energy International Holdings Limited:O | 4,454,600 | -30,000 | 0.16 | -0.00 | -1,830 | 2026-05-08 | |
| 280 | 3313 | ArtGo Holdings Limited:O | 1,398,500 | -20,000 | 0.10 | -0.00 | -2,360 | 2026-05-08 | |
| 281 | 1335 | SHEEN TAI HOLDINGS GROUP COMPANY LIMITED:O | 2,356,000 | -18,000 | 0.10 | -0.00 | -2,376 | 2026-05-08 | |
| 282 | 0884 | CIFI Holdings (Group) Co. Ltd.:O | 101,712,128 | -40,000 | 0.56 | -0.00 | -2,760 | 2026-05-08 | |
| 283 | 1250 | Shandong Hi-Speed New Energy Group Limited:O | 3,086,679 | -2,000 | 0.14 | -0.00 | -3,140 | 2026-05-08 | |
| 284 | 0370 | Hong Kong Robotics Group Holding Limited:O | 1,999,320 | -6,000 | 0.10 | -0.00 | -3,540 | 2026-05-08 | |
| 285 | 1718 | Wan Kei Group Holdings Limited:O | 620,000 | -10,000 | 0.20 | -0.00 | -3,650 | 2026-05-08 | |
| 286 | 0637 | Lee Kee Holdings Limited:O | 2,472,000 | -20,000 | 0.30 | -0.00 | -3,700 | 2026-05-08 | |
| 287 | 1967 | Confidence Intelligence Holdings Limited:O | 90,600 | -10,000 | 0.03 | -0.00 | -4,100 | 2026-05-08 | |
| 288 | 0909 | Ming Yuan Cloud Group Holdings Limited:O | 3,841,000 | -2,000 | 0.20 | -0.00 | -4,600 | 2026-05-08 | |
| 289 | 8191 | HONG WEI (ASIA) HOLDINGS COMPANY LIMITED:O | 1,503,600 | -30,000 | 2.04 | -0.04 | -5,820 | 2026-05-08 | |
| 290 | 8030 | Fengyinhe Holdings Limited:O | 129,650 | -5,000 | 0.04 | -0.00 | -5,850 | 2026-05-08 | |
| 291 | 1288 | AGRICULTURAL BANK OF CHINA LIMITED:H | 38,724,473 | -1,000 | 0.13 | -0.00 | -5,940 | 2026-05-08 | |
| 292 | 8056 | Life Concepts Holdings Limited (KY):O | 215,750 | -14,500 | 0.19 | -0.01 | -6,018 | 2026-05-08 | |
| 293 | 2722 | Chongqing Machinery & Electric Co., Ltd.:H | 4,664,000 | -2,000 | 0.42 | -0.00 | -6,900 | 2026-05-08 | |
| 294 | 2178 | Petro-king Oilfield Services Limited:O | 2,508,565 | -34,000 | 0.15 | -0.00 | -7,072 | 2026-05-08 | |
| 295 | 0354 | CHINASOFT INTERNATIONAL LIMITED:O | 7,792,000 | -2,000 | 0.29 | -0.00 | -7,120 | 2026-05-08 | |
| 296 | 0757 | Solargiga Energy Holdings Limited:O | 14,714,553 | -100,000 | 0.44 | -0.00 | -7,200 | 2026-05-08 | |
| 297 | 3328 | Bank of Communications Co., Ltd.:H | 25,312,133 | -1,000 | 0.07 | -0.00 | -7,230 | 2026-05-08 | |
| 298 | 1472 | Sang Hing Holdings (International) Limited:O | 3,530,000 | -65,000 | 0.35 | -0.01 | -8,190 | 2026-05-08 | |
| 299 | 0434 | Boyaa Interactive International Limited:O | 1,035,000 | -3,000 | 0.14 | -0.00 | -8,610 | 2026-05-08 | |
| 300 | 1119 | iDreamSky Technology Holdings Limited:O | 4,936,400 | -20,000 | 0.24 | -0.00 | -9,000 | 2026-05-08 | |
| 301 | 0905 | Walnut Capital Limited:O | 169,000 | -48,000 | 0.02 | -0.00 | -9,840 | 2026-05-08 | |
| 302 | 0532 | WONG'S KONG KING INTERNATIONAL (HOLDINGS) LIMITED:O | 727,800 | -20,000 | 0.10 | -0.00 | -10,000 | 2026-05-08 | |
| 303 | 1333 | Breton Technology Co., Ltd.:H | 62,000 | -600 | 0.02 | -0.00 | -10,422 | 2026-05-08 | |
| 304 | 6988 | Joy Spreader Group Inc.:O | 5,787,000 | -100,000 | 0.24 | -0.00 | -11,500 | 2026-05-08 | |
| 305 | 0550 | Allegro Culture Limited:O | 2,520,000 | -10,000 | 0.55 | -0.00 | -11,900 | 2026-05-08 | |
| 306 | 6680 | JL MAG RARE-EARTH CO., LTD.:H | 578,120 | -600 | 0.25 | -0.00 | -12,000 | 2026-05-08 | |
| 307 | 0345 | VITASOY INTERNATIONAL HOLDINGS LIMITED:O | 1,554,000 | -2,000 | 0.15 | -0.00 | -12,580 | 2026-05-08 | |
| 308 | 6098 | Country Garden Services Holdings Company Limited:O | 4,607,555 | -2,000 | 0.14 | -0.00 | -12,820 | 2026-05-08 | |
| 309 | 1928 | Sands China Ltd.:O | 2,297,349 | -800 | 0.03 | -0.00 | -13,136 | 2026-05-08 | |
| 310 | 2177 | UNQ HOLDINGS LIMITED:O | 16,200 | -5,000 | 0.01 | -0.00 | -13,200 | 2026-05-08 | |
| 311 | 0636 | KLN Logistics Group Limited (BM):O | 381,016 | -2,000 | 0.02 | -0.00 | -13,240 | 2026-05-08 | |
| 312 | 6099 | China Merchants Securities Co., Ltd.:H | 691,950 | -1,000 | 0.05 | -0.00 | -13,880 | 2026-05-08 | |
| 313 | 0256 | CITYCHAMP WATCH & JEWELLERY GROUP LIMITED:O | 960,000 | -160,000 | 0.02 | -0.00 | -15,200 | 2026-05-08 | |
| 314 | 470 | Wuxi Lead Intelligent Equipment Co., Ltd. (CN):H | 27,900 | -300 | 0.03 | -0.00 | -16,350 | 2026-05-08 | |
| 315 | 0440 | DAH SING FINANCIAL HOLDINGS LIMITED:O | 214,704 | -400 | 0.07 | -0.00 | -17,176 | 2026-05-08 | |
| 316 | 1712 | DRAGON MINING LIMITED:O | 1,033,000 | -2,000 | 0.54 | -0.00 | -17,380 | 2026-05-08 | |
| 317 | 0650 | Productive Technologies Company Limited (BM):O | 1,814,500 | -26,000 | 0.02 | -0.00 | -17,940 | 2026-05-08 | |
| 318 | 0232 | Continental Aerospace Technologies Holding Limited (BM):O | 73,428,525 | -94,000 | 0.79 | -0.00 | -17,954 | 2026-05-08 | |
| 319 | 2402 | Beijing SinoHytec Co., Ltd.:H | 6,746 | -1,000 | 0.02 | -0.00 | -18,020 | 2026-05-08 | |
| 320 | 6628 | Transcenta Holding Limited:O | 224,000 | -8,500 | 0.05 | -0.00 | -18,105 | 2026-05-08 | |
| 321 | 0240 | BUILD KING HOLDINGS LIMITED:O | 832,152 | -10,000 | 0.07 | -0.00 | -18,300 | 2026-05-08 | |
| 322 | 0305 | Wuling Motors Holdings Limited:O | 16,243,855 | -40,000 | 0.49 | -0.00 | -19,200 | 2026-05-08 | |
| 323 | 0337 | Greenland Hong Kong Holdings Limited:O | 10,123,350 | -100,000 | 0.36 | -0.00 | -19,400 | 2026-05-08 | |
| 324 | 8512 | Hyfusin Group Holdings Limited:O | 1,240,000 | -50,000 | 0.14 | -0.01 | -20,000 | 2026-05-08 | |
| 325 | 0855 | CHINA WATER AFFAIRS GROUP LIMITED:O | 1,246,000 | -4,000 | 0.08 | -0.00 | -20,280 | 2026-05-08 | |
| 326 | 0405 | Yuexiu Real Estate Investment Trust:Unit | 17,207,997 | -28,000 | 0.32 | -0.00 | -20,720 | 2026-05-08 | |
| 327 | 2655 | Guoxia Technology Co., Ltd.:H | 85,500 | -700 | 0.02 | -0.00 | -20,944 | 2026-05-08 | |
| 328 | 3883 | China Aoyuan Group Limited:O | 26,436,648 | -400,000 | 0.57 | -0.01 | -24,000 | 2026-05-08 | |
| 329 | 0648 | SoftMedx Healthcare Limited:O | 954,437 | -55,000 | 0.04 | -0.00 | -24,200 | 2026-05-08 | |
| 330 | 1382 | Pacific Textiles Holdings Limited:O | 2,492,000 | -20,000 | 0.18 | -0.00 | -24,800 | 2026-05-08 | |
| 331 | 1611 | Bitfire Group Holdings Limited (VG):O | 1,992,000 | -10,000 | 0.26 | -0.00 | -25,900 | 2026-05-08 | |
| 332 | 0639 | SHOUGANG FUSHAN RESOURCES GROUP LIMITED:O | 6,880,058 | -10,000 | 0.14 | -0.00 | -26,700 | 2026-05-08 | |
| 333 | 7233 | CSOP CSI 300 Index Daily (2x) Leveraged Product:Unit | 386,700 | -5,000 | 0.47 | -0.01 | -27,100 | 2026-05-08 | |
| 334 | 6030 | CITIC Securities Company Limited:H | 1,878,153 | -1,000 | 0.07 | -0.00 | -27,120 | 2026-05-08 | |
| 335 | 0365 | Sino ICT Holdings Limited:O | 688,000 | -24,000 | 0.05 | -0.00 | -27,600 | 2026-05-08 | |
| 336 | 1022 | Feiyu Technology International Company Ltd.:O | 4,663,500 | -49,500 | 0.27 | -0.00 | -28,215 | 2026-05-08 | |
| 337 | 2699 | Xinming China Holdings Limited:O | 365,400 | -100,000 | 0.39 | -0.11 | -28,500 | 2026-05-08 | |
| 338 | 3330 | Lingbao Gold Group Company Ltd.:H | 2,634,700 | -1,200 | 0.22 | -0.00 | -30,048 | 2026-05-08 | |
| 339 | 2380 | CHINA POWER INTERNATIONAL DEVELOPMENT LIMITED:O | 15,662,120 | -9,000 | 0.13 | -0.00 | -30,420 | 2026-05-08 | |
| 340 | 1548 | Genscript Biotech Corporation:O | 6,774,000 | -2,000 | 0.31 | -0.00 | -30,420 | 2026-05-08 | |
| 341 | 0117 | Tianli Holdings Group Limited:O | 98,000 | -32,000 | 0.01 | -0.00 | -31,680 | 2026-05-08 | |
| 342 | 3858 | Jiaxin International Resources Investment Limited:O | 12,800 | -400 | 0.00 | -0.00 | -33,260 | 2026-05-08 | |
| 343 | 0290 | GoFintech Quantum Innovation Limited:O | 411,400 | -4,000 | 0.00 | -0.00 | -33,720 | 2026-05-08 | |
| 344 | 6088 | FOXCONN INTERCONNECT TECHNOLOGY LIMITED:O | 2,187,000 | -4,000 | 0.03 | -0.00 | -36,320 | 2026-05-08 | |
| 345 | 6809 | Montage Technology Co., Ltd.:H | 62,500 | -100 | 0.08 | -0.00 | -37,560 | 2026-05-08 | |
| 346 | 0315 | SMARTONE TELECOMMUNICATIONS HOLDINGS LIMITED:O | 1,067,170 | -7,500 | 0.10 | -0.00 | -39,525 | 2026-05-08 | |
| 347 | 2522 | Jiangxi Rimag Group Co., Ltd.:H | 359,000 | -5,000 | 0.12 | -0.00 | -41,800 | 2026-05-08 | |
| 348 | 9963 | Transtech Optelecom Science Holdings Limited:O | 316,000 | -6,000 | 0.11 | -0.00 | -43,860 | 2026-05-08 | |
| 349 | 0558 | L.K. Technology Holdings Limited:O | 1,598,250 | -15,000 | 0.12 | -0.00 | -43,950 | 2026-05-08 | |
| 350 | 0815 | China Silver Group Limited:O | 24,059,360 | -96,000 | 0.78 | -0.00 | -44,160 | 2026-05-08 | |
| 351 | 6110 | Topsports International Holdings Limited:O | 1,078,000 | -15,000 | 0.02 | -0.00 | -44,250 | 2026-05-08 | |
| 352 | 2007 | Country Garden Holdings Company Limited:O | 133,750,459 | -165,000 | 0.29 | -0.00 | -44,550 | 2026-05-08 | |
| 353 | 0101 | HANG LUNG PROPERTIES LIMITED:O | 4,011,199 | -5,000 | 0.08 | -0.00 | -45,250 | 2026-05-08 | |
| 354 | 6865 | Flat Glass Group Co., Ltd.:H | 585,000 | -5,000 | 0.13 | -0.00 | -46,600 | 2026-05-08 | |
| 355 | 0199 | ITC Properties Group Limited:O | 1,381,461 | -50,000 | 0.14 | -0.00 | -47,000 | 2026-05-08 | |
| 356 | 0475 | Central Development Holdings Limited:O | 456,000 | -166,000 | 0.09 | -0.03 | -47,310 | 2026-05-08 | |
| 357 | 0921 | Hisense Home Appliances Group Co., Ltd.:H | 316,000 | -2,000 | 0.07 | -0.00 | -47,440 | 2026-05-08 | |
| 358 | 0861 | DIGITAL CHINA HOLDINGS LIMITED:O | 2,336,063 | -20,000 | 0.14 | -0.00 | -47,600 | 2026-05-08 | |
| 359 | 7311 | CSOP Coinbase Daily (-2x) Inverse Product:Unit | 39,900 | -4,500 | 1.90 | -0.21 | -48,420 | 2026-05-08 | |
| 360 | 0340 | Tongguan Gold Group Limited:O | 3,041,540 | -16,000 | 0.06 | -0.00 | -49,600 | 2026-05-08 | |
| 361 | 1617 | Nanfang Communication Holdings Limited:O | 7,172,000 | -60,000 | 0.44 | -0.00 | -49,800 | 2026-05-08 | |
| 362 | 1658 | Postal Savings Bank of China Co., Ltd.:H | 5,640,263 | -10,000 | 0.03 | -0.00 | -51,000 | 2026-05-08 | |
| 363 | 0697 | Shoucheng Holdings Limited:O | 24,910,400 | -30,000 | 0.30 | -0.00 | -51,600 | 2026-05-08 | |
| 364 | 3329 | BOCOM International Holdings Company Limited:O | 4,737,275 | -100,000 | 0.17 | -0.00 | -52,000 | 2026-05-08 | |
| 365 | 1336 | New China Life Insurance Company Ltd.:H | 1,240,136 | -1,000 | 0.12 | -0.00 | -52,950 | 2026-05-08 | |
| 366 | 2569 | Soft International Group Ltd:O | 545,000 | -50,000 | 0.05 | -0.01 | -53,500 | 2026-05-08 | |
| 367 | 2828 | Hang Seng China Enterprises Index ETF:Unit | 500,023 | -600 | 0.15 | -0.00 | -54,648 | 2026-05-08 | |
| 368 | 6978 | Immunotech Biopharm Ltd:O | 430,400 | -64,000 | 0.07 | -0.01 | -55,680 | 2026-05-08 | |
| 369 | 1339 | People's Insurance Company (Group) of China Limited (The):H | 12,671,606 | -10,000 | 0.15 | -0.00 | -55,700 | 2026-05-08 | |
| 370 | 1036 | Vanke Overseas Investment Holding Company Limited:O | 520,500 | -30,000 | 0.13 | -0.01 | -56,100 | 2026-05-08 | |
| 371 | 0857 | PETROCHINA COMPANY LIMITED:H | 34,290,401 | -5,327 | 0.16 | -0.00 | -56,413 | 2026-05-08 | |
| 372 | 2590 | Beijing Geekplus Technology Co., Ltd.:H | 992,400 | -3,000 | 0.10 | -0.00 | -56,820 | 2026-05-08 | |
| 373 | 6936 | S.F. Holding Co., Ltd.:H | 255,000 | -1,600 | 0.11 | -0.00 | -57,024 | 2026-05-08 | |
| 374 | 2865 | Hainan Drinda New Energy Technology Co., Ltd.:O | 181,700 | -1,300 | 0.22 | -0.00 | -57,486 | 2026-05-08 | |
| 375 | 1572 | China Art Financial Holdings Limited:O | 48,472,000 | -600,000 | 2.87 | -0.04 | -61,800 | 2026-05-08 | |
| 376 | 0334 | China Display Optoelectronics Technology Holdings Limited:O | 18,266,400 | -144,000 | 0.86 | -0.01 | -62,640 | 2026-05-08 | |
| 377 | 1128 | Wynn Macau, Limited:O | 3,489,600 | -10,800 | 0.07 | -0.00 | -62,964 | 2026-05-08 | |
| 378 | 2591 | Guangzhou Innogen Pharmaceutical Group Co., Ltd.:H | 101,600 | -5,000 | 0.02 | -0.00 | -63,250 | 2026-05-08 | |
| 379 | 0027 | GALAXY ENTERTAINMENT GROUP LIMITED:O | 1,469,022 | -2,000 | 0.03 | -0.00 | -65,560 | 2026-05-08 | |
| 380 | 0546 | Fufeng Group Limited:O | 926,800 | -10,000 | 0.04 | -0.00 | -66,000 | 2026-05-08 | |
| 381 | 9863 | Zhejiang Leapmotor Technology Co., Ltd.:H | 27,700 | -1,400 | 0.00 | -0.00 | -66,920 | 2026-05-08 | |
| 382 | 6031 | SANY HEAVY INDUSTRY CO., LTD.:H | 50,000 | -3,000 | 0.01 | -0.00 | -67,080 | 2026-05-08 | |
| 383 | 0465 | FUTONG TECHNOLOGY DEVELOPMENT HOLDINGS LIMITED:O | 1,494,000 | -22,000 | 0.48 | -0.01 | -67,540 | 2026-05-08 | |
| 384 | 2013 | Weimob Inc.:O | 28,901,000 | -45,000 | 0.70 | -0.00 | -69,750 | 2026-05-08 | |
| 385 | 0799 | IGG Inc:O | 2,027,000 | -21,000 | 0.18 | -0.00 | -70,140 | 2026-05-08 | |
| 386 | 2692 | Shenzhen Zhaowei Machinery & Electronics Co., Ltd. -H Shares:H | 19,500 | -1,000 | 0.07 | -0.00 | -70,250 | 2026-05-08 | |
| 387 | 0316 | ORIENT OVERSEAS (INTERNATIONAL) LIMITED:O | 263,500 | -500 | 0.04 | -0.00 | -70,350 | 2026-05-08 | |
| 388 | 0603 | China Oil And Gas Group Limited:O | 45,026,340 | -460,000 | 0.80 | -0.01 | -73,600 | 2026-05-08 | |
| 389 | 1428 | Bright Smart Securities & Commodities Group Limited:O | 3,086,000 | -6,000 | 0.18 | -0.00 | -73,800 | 2026-05-08 | |
| 390 | 0604 | SHENZHEN INVESTMENT LIMITED:O | 38,115,062 | -90,000 | 0.43 | -0.00 | -76,500 | 2026-05-08 | |
| 391 | 1997 | Wharf Real Estate Investment Company Limited:O | 614,210 | -3,000 | 0.02 | -0.00 | -76,800 | 2026-05-08 | |
| 392 | 0817 | China Jinmao Holdings Group Limited:O | 8,722,021 | -40,000 | 0.06 | -0.00 | -77,200 | 2026-05-08 | |
| 393 | 800 | WeRide Inc.:A | 26,800 | -4,000 | 0.00 | -0.00 | -78,720 | 2026-05-08 | |
| 394 | 1071 | HUADIAN POWER INTERNATIONAL CORPORATION LIMITED:H | 1,146,000 | -18,000 | 0.07 | -0.00 | -79,200 | 2026-05-08 | |
| 395 | 0933 | Viva Goods Company Limited:O | 5,219,793 | -144,000 | 0.05 | -0.00 | -84,960 | 2026-05-08 | |
| 396 | 1384 | Deepexi Technology Co., Ltd.:H | 56,800 | -1,400 | 0.02 | -0.00 | -86,240 | 2026-05-08 | |
| 397 | 0960 | Longfor Group Holdings Limited:O | 991,995 | -9,500 | 0.01 | -0.00 | -86,925 | 2026-05-08 | |
| 398 | 0670 | China Eastern Airlines Corporation Limited:H | 2,500,000 | -20,000 | 0.05 | -0.00 | -87,600 | 2026-05-08 | |
| 399 | 1055 | China Southern Airlines Company Limited:H | 2,046,568 | -20,000 | 0.04 | -0.00 | -88,600 | 2026-05-08 | |
| 400 | 2668 | PAK TAK INTERNATIONAL LIMITED:O | 3,010,000 | -240,000 | 0.05 | -0.00 | -90,000 | 2026-05-08 | |
| 401 | 0425 | Minth Group Limited:O | 197,300 | -2,300 | 0.02 | -0.00 | -91,264 | 2026-05-08 | |
| 402 | 2513 | Knowledge Atlas Technology Joint Stock Company Limited:H | 10,300 | -100 | 0.00 | -0.00 | -92,300 | 2026-05-08 | |
| 403 | 2822 | CSOP FTSE China A50 ETF:Unit | 3,720,990 | -6,000 | 0.77 | -0.00 | -96,600 | 2026-05-08 | |
| 404 | 3606 | Fuyao Glass Industry Group Co., Ltd.:H | 54,000 | -1,600 | 0.01 | -0.00 | -103,200 | 2026-05-08 | |
| 405 | 2343 | PACIFIC BASIN SHIPPING LIMITED:O | 4,696,232 | -32,000 | 0.09 | -0.00 | -107,200 | 2026-05-08 | |
| 406 | 2382 | Sunny Optical Technology (Group) Company Limited:O | 958,692 | -1,600 | 0.09 | -0.00 | -108,000 | 2026-05-08 | |
| 407 | 6160 | BeOne Medicine Ltd.:O | 31,100 | -600 | 0.00 | -0.00 | -114,360 | 2026-05-08 | |
| 408 | 0017 | NEW WORLD DEVELOPMENT COMPANY LIMITED:O | 6,879,949 | -12,000 | 0.27 | -0.00 | -115,080 | 2026-05-08 | |
| 409 | 1276 | Jiangsu Hengrui Pharmaceuticals Co., Ltd.:H | 149,800 | -1,800 | 0.06 | -0.00 | -116,190 | 2026-05-08 | |
| 410 | 0358 | Jiangxi Copper Company Limited:H | 2,763,095 | -3,000 | 0.20 | -0.00 | -118,020 | 2026-05-08 | |
| 411 | 0135 | KUNLUN ENERGY COMPANY LIMITED:O | 5,291,914 | -16,000 | 0.06 | -0.00 | -119,200 | 2026-05-08 | |
| 412 | 2333 | GREAT WALL MOTOR COMPANY LIMITED (CN):H | 3,685,256 | -10,000 | 0.16 | -0.00 | -121,100 | 2026-05-08 | |
| 413 | 3681 | SINOMAB BIOSCIENCE LIMITED:O | 25,395,900 | -86,100 | 1.83 | -0.01 | -122,262 | 2026-05-08 | |
| 414 | 8017 | TradeGo FinTech Limited:O | 816,000 | -92,000 | 0.11 | -0.01 | -124,200 | 2026-05-08 | |
| 415 | 2729 | Zhejiang Galaxis Technology Group Co., Ltd.:H | 600 | -3,600 | 0.00 | -0.00 | -124,272 | 2026-05-08 | |
| 416 | 0683 | KERRY PROPERTIES LIMITED:O | 1,679,521 | -5,000 | 0.12 | -0.00 | -125,100 | 2026-05-08 | |
| 417 | 0902 | HUA NENG POWER INTERNATIONAL, INC.:H | 2,876,080 | -20,000 | 0.06 | -0.00 | -131,600 | 2026-05-08 | |
| 418 | 0019 | SWIRE PACIFIC LIMITED:A | 189,866 | -1,500 | 0.02 | -0.00 | -136,725 | 2026-05-08 | |
| 419 | 3339 | Lonking Holdings Limited:O | 5,392,000 | -43,000 | 0.13 | -0.00 | -143,190 | 2026-05-08 | |
| 420 | 3288 | Foshan Haitian Flavouring and Food Company Ltd.:H | 58,000 | -4,300 | 0.02 | -0.00 | -146,630 | 2026-05-08 | |
| 421 | 0285 | BYD Electronic (International) Company Limited:O | 2,092,364 | -5,500 | 0.09 | -0.00 | -156,860 | 2026-05-08 | |
| 422 | 0303 | VTECH HOLDINGS LIMITED:O | 614,900 | -2,500 | 0.24 | -0.00 | -157,500 | 2026-05-08 | |
| 423 | 0144 | China Merchants Port Holdings Company Limited:O | 3,142,847 | -10,000 | 0.07 | -0.00 | -159,000 | 2026-05-08 | |
| 424 | 3896 | Kingsoft Cloud Holdings Limited:O | 5,526,000 | -20,000 | 0.12 | -0.00 | -165,400 | 2026-05-08 | |
| 425 | 1286 | IMPRO PRECISION INDUSTRIES LIMITED:O | 189,000 | -16,000 | 0.01 | -0.00 | -167,680 | 2026-05-08 | |
| 426 | 0991 | DATANG INTERNATIONAL POWER GENERATION COMPANY LIMITED:H | 19,558,979 | -60,000 | 0.32 | -0.00 | -180,600 | 2026-05-08 | |
| 427 | 1109 | CHINA RESOURCES LAND LIMITED:O | 636,650 | -5,000 | 0.01 | -0.00 | -183,800 | 2026-05-08 | |
| 428 | 0659 | CTF Services Limited (BM):O | 2,585,951 | -22,000 | 0.06 | -0.00 | -189,200 | 2026-05-08 | |
| 429 | 1072 | Dongfang Electric Corporation Limited:H | 1,131,200 | -5,800 | 0.28 | -0.00 | -212,512 | 2026-05-08 | |
| 430 | 1398 | Industrial and Commercial Bank of China Limited:H | 126,103,498 | -31,000 | 0.15 | -0.00 | -214,520 | 2026-05-08 | |
| 431 | 3908 | China International Capital Corporation Limited:H | 1,924,966 | -10,000 | 0.10 | -0.00 | -214,600 | 2026-05-08 | |
| 432 | 0267 | CITIC Limited (HK):O | 12,659,739 | -16,000 | 0.04 | -0.00 | -217,760 | 2026-05-08 | |
| 433 | 3988 | BANK OF CHINA LIMITED:H | 294,343,256 | -43,000 | 0.35 | -0.00 | -219,730 | 2026-05-08 | |
| 434 | 6969 | Smoore International Holdings Limited:O | 1,348,000 | -22,000 | 0.02 | -0.00 | -220,440 | 2026-05-08 | |
| 435 | 0553 | NANJING PANDA ELECTRONICS COMPANY LIMITED:H | 616,000 | -46,000 | 0.25 | -0.02 | -229,540 | 2026-05-08 | |
| 436 | 1113 | CK Asset Holdings Limited (KY):O | 3,099,600 | -4,503 | 0.09 | -0.00 | -231,004 | 2026-05-08 | |
| 437 | 0083 | SINO LAND COMPANY LIMITED:O | 1,210,212 | -18,000 | 0.01 | -0.00 | -231,300 | 2026-05-08 | |
| 438 | 2727 | Shanghai Electric Group Company Limited:H | 9,848,917 | -60,000 | 0.34 | -0.00 | -240,000 | 2026-05-08 | |
| 439 | 2823 | iShares FTSE China A50 ETF:Unit | 3,603,138 | -14,013 | 0.39 | -0.00 | -243,686 | 2026-05-08 | |
| 440 | 3317 | Shenzhen Xunce Technology Co., Ltd.:H | 12,100 | -1,000 | 0.00 | -0.00 | -250,000 | 2026-05-08 | |
| 441 | 7709 | CSOP SK Hynix Daily (2x) Leveraged Product:Unit | 343,300 | -3,200 | 0.06 | -0.00 | -251,136 | 2026-05-08 | |
| 442 | 0293 | CATHAY PACIFIC AIRWAYS LIMITED:O | 5,954,397 | -20,000 | 0.10 | -0.00 | -252,000 | 2026-05-08 | |
| 443 | 2315 | Biocytogen Pharmaceuticals (Beijing) Co., Ltd.:H | 7,500 | -5,000 | 0.01 | -0.00 | -257,250 | 2026-05-08 | |
| 444 | 3296 | Huaqin Co., Ltd.:H | 7,700 | -2,200 | 0.01 | -0.00 | -264,000 | 2026-05-08 | |
| 445 | 0023 | BANK OF EAST ASIA, LIMITED (THE):O | 1,277,716 | -20,000 | 0.05 | -0.00 | -280,200 | 2026-05-08 | |
| 446 | 1130 | China Environmental Resources Group Limited:O | 516,538 | -440,000 | 0.09 | -0.08 | -281,600 | 2026-05-08 | |
| 447 | 0363 | SHANGHAI INDUSTRIAL HOLDINGS LIMITED:O | 2,195,476 | -18,000 | 0.20 | -0.00 | -281,700 | 2026-05-08 | |
| 448 | 1138 | COSCO SHIPPING Energy Transportation Co., Ltd.:H | 628,000 | -14,000 | 0.05 | -0.00 | -290,920 | 2026-05-08 | |
| 449 | 3986 | GigaDevice Semiconductor Inc.:H | 20,400 | -600 | 0.06 | -0.00 | -294,000 | 2026-05-08 | |
| 450 | 3069 | ChinaAMC Hang Seng Biotech ETF:Unit | 352,200 | -20,000 | 0.23 | -0.01 | -295,400 | 2026-05-08 | |
| 451 | 1385 | Shanghai Fudan Microelectronics Group Company Limited:H | 342,000 | -7,000 | 0.12 | -0.00 | -297,360 | 2026-05-08 | |
| 452 | 2600 | ALUMINUM CORPORATION OF CHINA LIMITED:H | 11,480,214 | -26,000 | 0.29 | -0.00 | -300,040 | 2026-05-08 | |
| 453 | 0386 | CHINA PETROLEUM & CHEMICAL CORPORATION:H | 58,957,959 | -66,000 | 0.25 | -0.00 | -304,260 | 2026-05-08 | |
| 454 | 1396 | Guangdong - Hong Kong Greater Bay Area Holdings Limited:O | 895,414 | -20,000 | 0.08 | -0.00 | -307,600 | 2026-05-08 | |
| 455 | 0003 | HONG KONG AND CHINA GAS COMPANY LIMITED (THE):O | 88,195,019 | -42,117 | 0.47 | -0.00 | -308,296 | 2026-05-08 | |
| 456 | 9696 | Tianqi Lithium Corporation:H | 58,400 | -5,200 | 0.03 | -0.00 | -323,700 | 2026-05-08 | |
| 457 | 0006 | Power Assets Holdings Limited:O | 4,008,217 | -5,052 | 0.19 | -0.00 | -325,349 | 2026-05-08 | |
| 458 | 0868 | XINYI GLASS HOLDINGS LIMITED:O | 1,721,053 | -33,000 | 0.04 | -0.00 | -345,510 | 2026-05-08 | |
| 459 | 1818 | Zhaojin Mining Industry Company Limited:H | 2,102,000 | -12,000 | 0.07 | -0.00 | -358,800 | 2026-05-08 | |
| 460 | 0763 | ZTE CORPORATION:H | 3,445,028 | -13,200 | 0.46 | -0.00 | -361,680 | 2026-05-08 | |
| 461 | 0012 | HENDERSON LAND DEVELOPMENT COMPANY LIMITED:O | 3,745,656 | -10,713 | 0.08 | -0.00 | -363,385 | 2026-05-08 | |
| 462 | 1877 | Shanghai Junshi Biosciences Co., Ltd.:H | 255,000 | -15,000 | 0.10 | -0.01 | -367,200 | 2026-05-08 | |
| 463 | 2252 | Shanghai MicroPort MedBot (Group) Co., Ltd.:H | 628,000 | -13,500 | 0.06 | -0.00 | -391,770 | 2026-05-08 | |
| 464 | 7200 | CSOP Hang Seng Index Daily (2x) Leveraged Product:Unit | 3,133,900 | -68,000 | 0.71 | -0.02 | -414,120 | 2026-05-08 | |
| 465 | 0014 | HYSAN DEVELOPMENT COMPANY LIMITED:O | 689,076 | -21,000 | 0.07 | -0.00 | -427,140 | 2026-05-08 | |
| 466 | 3360 | Far East Horizon Limited:O | 383,000 | -60,000 | 0.01 | -0.00 | -465,600 | 2026-05-08 | |
| 467 | 1133 | Harbin Electric Company Limited:H | 2,646,000 | -20,000 | 0.39 | -0.00 | -484,400 | 2026-05-08 | |
| 468 | 6693 | Chifeng Jilong Gold Mining Co., Ltd.:H | 28,800 | -10,600 | 0.01 | -0.00 | -484,420 | 2026-05-08 | |
| 469 | 0297 | Sinofert Holdings Limited:O | 11,071,400 | -326,000 | 0.16 | -0.00 | -515,080 | 2026-05-08 | |
| 470 | 0148 | Kingboard Holdings Limited:O | 579,400 | -10,000 | 0.05 | -0.00 | -518,500 | 2026-05-08 | |
| 471 | 1060 | Damai Entertainment Holdings Limited (BM):O | 43,307,748 | -920,000 | 0.14 | -0.00 | -561,200 | 2026-05-08 | |
| 472 | 0016 | SUN HUNG KAI PROPERTIES LIMITED:O | 568,671 | -4,000 | 0.02 | -0.00 | -566,000 | 2026-05-08 | |
| 473 | 3311 | CHINA STATE CONSTRUCTION INTERNATIONAL HOLDINGS LIMITED:O | 3,087,029 | -70,000 | 0.06 | -0.00 | -656,600 | 2026-05-08 | |
| 474 | 0522 | ASMPT Limited:O | 72,500 | -3,900 | 0.02 | -0.00 | -658,710 | 2026-05-08 | |
| 475 | 6082 | Shanghai Biren Technology Co., Ltd.:H | 354,200 | -12,000 | 0.03 | -0.00 | -679,800 | 2026-05-08 | |
| 476 | 2899 | ZIJIN MINING GROUP CO., LTD.:H | 7,772,736 | -18,000 | 0.13 | -0.00 | -693,000 | 2026-05-08 | |
| 477 | 0728 | CHINA TELECOM CORPORATION LIMITED:H | 19,218,176 | -130,000 | 0.14 | -0.00 | -704,600 | 2026-05-08 | |
| 478 | 0002 | CLP HOLDINGS LIMITED:O | 8,607,880 | -9,466 | 0.34 | -0.00 | -712,790 | 2026-05-08 | |
| 479 | 9888 | Baidu, Inc.:A | 647,715 | -4,950 | 0.03 | -0.00 | -718,740 | 2026-05-08 | |
| 480 | 0552 | China Communications Services Corporation Limited:H | 3,671,487 | -166,000 | 0.15 | -0.01 | -730,400 | 2026-05-08 | |
| 481 | 2526 | Hangzhou Diagens Biotechnology Co., Ltd.:H | 3,100 | -2,250 | 0.00 | -0.00 | -742,500 | 2026-05-08 | |
| 482 | 0823 | Link Real Estate Investment Trust:Unit | 9,936,535 | -19,000 | 0.38 | -0.00 | -779,760 | 2026-05-08 | |
| 483 | 9903 | Shanghai Iluvatar CoreX Semiconductor Co., Ltd.:H | 18,300 | -1,500 | 0.01 | -0.00 | -831,000 | 2026-05-08 | |
| 484 | 1860 | Mobvista Inc.:O | 325,000 | -50,000 | 0.02 | -0.00 | -837,000 | 2026-05-08 | |
| 485 | 0998 | China CITIC Bank Corporation Limited:H | 8,020,819 | -101,000 | 0.05 | -0.00 | -842,340 | 2026-05-08 | |
| 486 | 1729 | TIME INTERCONNECT TECHNOLOGY LIMITED:O | 1,272,000 | -40,000 | 0.06 | -0.00 | -908,000 | 2026-05-08 | |
| 487 | 0939 | CHINA CONSTRUCTION BANK CORPORATION:H | 169,746,198 | -105,072 | 0.07 | -0.00 | -920,431 | 2026-05-08 | |
| 488 | 0179 | JOHNSON ELECTRIC HOLDINGS LIMITED:O | 594,566 | -34,500 | 0.06 | -0.00 | -973,590 | 2026-05-08 | |
| 489 | 2259 | Zijin Gold International Company Limited:O | 188,174 | -6,100 | 0.01 | -0.00 | -1,052,250 | 2026-05-08 | |
| 490 | 0020 | SenseTime Group Inc.:B | 200,033,200 | -516,000 | 0.48 | -0.00 | -1,062,960 | 2026-05-08 | |
| 491 | 0066 | MTR CORPORATION LIMITED:O | 11,754,617 | -31,500 | 0.19 | -0.00 | -1,081,710 | 2026-05-08 | |
| 492 | 9698 | GDS Holdings Limited (KY):A | 233,200 | -24,900 | 0.02 | -0.00 | -1,097,592 | 2026-05-08 | |
| 493 | 6181 | Laopu Gold Co., Ltd.:H | 75,700 | -2,100 | 0.05 | -0.00 | -1,244,250 | 2026-05-08 | |
| 494 | 1024 | Kuaishou Technology:B | 4,602,080 | -25,000 | 0.13 | -0.00 | -1,323,750 | 2026-05-08 | |
| 495 | 0123 | Yuexiu Property Company Limited:O | 9,634,536 | -294,000 | 0.24 | -0.01 | -1,334,760 | 2026-05-08 | |
| 496 | 7226 | CSOP Hang Seng TECH Index Daily (2x) Leveraged Product:Unit | 16,935,880 | -358,800 | 0.47 | -0.01 | -1,486,150 | 2026-05-08 | |
| 497 | 6613 | Lens Technology Co., Ltd.:H | 1,383,600 | -78,600 | 0.46 | -0.03 | -1,528,770 | 2026-05-08 | |
| 498 | 2800 | Tracker Fund of Hong Kong:Unit | 25,892,430 | -57,953 | 0.50 | -0.00 | -1,535,755 | 2026-05-08 | |
| 499 | 0883 | CNOOC LIMITED:O | 11,089,001 | -60,000 | 0.02 | -0.00 | -1,586,400 | 2026-05-08 | |
| 500 | 2318 | PING AN INSURANCE (GROUP) COMPANY OF CHINA, LTD.:H | 11,496,032 | -24,220 | 0.15 | -0.00 | -1,588,832 | 2026-05-08 | |
| 501 | 9636 | JF SmartInvest Holdings Ltd:O | 22,000 | -41,500 | 0.00 | -0.01 | -1,607,710 | 2026-05-08 | |
| 502 | 2628 | CHINA LIFE INSURANCE COMPANY LIMITED:H | 21,351,149 | -56,000 | 0.29 | -0.00 | -1,750,560 | 2026-05-08 | |
| 503 | 1357 | Meitu, Inc.:O | 6,926,500 | -355,500 | 0.15 | -0.01 | -1,866,375 | 2026-05-08 | |
| 504 | 1888 | Kingboard Laminates Holdings Limited:O | 1,691,681 | -44,500 | 0.05 | -0.00 | -1,925,960 | 2026-05-08 | |
| 505 | 3323 | China National Building Material Company Limited:H | 17,523,701 | -334,000 | 0.47 | -0.01 | -1,937,200 | 2026-05-08 | |
| 506 | 1258 | China Nonferrous Mining Corporation Limited:O | 795,000 | -134,000 | 0.02 | -0.00 | -1,976,500 | 2026-05-08 | |
| 507 | 100 | MiniMax Group Inc.:A | 24,640 | -3,080 | 0.01 | -0.00 | -2,286,900 | 2026-05-08 | |
| 508 | 6855 | Ascentage Pharma Group International:O | 297,800 | -59,500 | 0.08 | -0.02 | -2,537,080 | 2026-05-08 | |
| 509 | 0992 | LENOVO GROUP LIMITED:O | 7,041,526 | -203,589 | 0.06 | -0.00 | -2,553,006 | 2026-05-08 | |
| 510 | 0688 | CHINA OVERSEAS LAND & INVESTMENT LIMITED:O | 4,251,505 | -199,500 | 0.04 | -0.00 | -3,176,040 | 2026-05-08 | |
| 511 | 0388 | HONG KONG EXCHANGES AND CLEARING LIMITED:O | 4,269,609 | -7,600 | 0.34 | -0.00 | -3,223,920 | 2026-05-08 | |
| 512 | 9995 | RemeGen Co., Ltd.:H | 565,500 | -39,500 | 0.27 | -0.02 | -3,859,150 | 2026-05-08 | |
| 513 | 1347 | HUA HONG SEMICONDUCTOR LIMITED:O | 504,263 | -31,031 | 0.03 | -0.00 | -4,058,855 | 2026-05-08 | |
| 514 | 0001 | CK Hutchison Holdings Limited:O | 5,893,532 | -55,551 | 0.15 | -0.00 | -4,071,888 | 2026-05-08 | |
| 515 | 1787 | Shandong Gold Mining Co., Ltd.:H | 5,866,015 | -143,250 | 0.59 | -0.01 | -4,526,700 | 2026-05-08 | |
| 516 | 0005 | HSBC HOLDINGS PLC:O | 40,499,540 | -36,000 | 0.24 | -0.00 | -4,993,200 | 2026-05-08 | |
| 517 | 9988 | Alibaba Group Holding Limited (KY):O | 15,111,816 | -58,700 | 0.08 | -0.00 | -8,159,300 | 2026-05-08 | |
| 518 | 0981 | SEMICONDUCTOR MANUFACTURING INTERNATIONAL CORPORATION:O | 15,103,069 | -213,130 | 0.19 | -0.00 | -15,633,086 | 2026-05-08 | |
| 519 | 2388 | BOC HONG KONG (HOLDINGS) LIMITED (HK):O | 21,685,618 | -359,000 | 0.21 | -0.00 | -16,320,140 | 2026-05-08 |
Webb-site Database - Powered By Linux Group